sensor_id;sensor_type;location;lat;lon;timestamp;pressure;altitude;pressure_sealevel;temperature;humidity
54270;BME280;40181;51.560;13.000;2022-11-02T00:02:07;101102.59;;;11.06;85.71
54270;BME280;40181;51.560;13.000;2022-11-02T00:04:36;101105.16;;;11.05;85.33
54270;BME280;40181;51.560;13.000;2022-11-02T00:07:06;101091.53;;;11.25;84.63
54270;BME280;40181;51.560;13.000;2022-11-02T00:09:35;101099.44;;;11.26;84.24
54270;BME280;40181;51.560;13.000;2022-11-02T00:12:06;101103.06;;;10.87;85.88
54270;BME280;40181;51.560;13.000;2022-11-02T00:14:35;101097.28;;;11.03;85.31
54270;BME280;40181;51.560;13.000;2022-11-02T00:17:07;101107.13;;;11.14;84.59
54270;BME280;40181;51.560;13.000;2022-11-02T00:19:36;101102.25;;;10.91;85.61
54270;BME280;40181;51.560;13.000;2022-11-02T00:22:06;101110.50;;;11.08;84.72
54270;BME280;40181;51.560;13.000;2022-11-02T00:24:38;101110.78;;;11.22;83.68
54270;BME280;40181;51.560;13.000;2022-11-02T00:27:07;101121.06;;;10.68;85.90
54270;BME280;40181;51.560;13.000;2022-11-02T00:29:37;101123.25;;;10.48;86.55
54270;BME280;40181;51.560;13.000;2022-11-02T00:32:08;101119.06;;;10.56;86.96
54270;BME280;40181;51.560;13.000;2022-11-02T00:34:38;101117.22;;;10.93;85.26
54270;BME280;40181;51.560;13.000;2022-11-02T00:37:07;101119.91;;;10.57;86.30
54270;BME280;40181;51.560;13.000;2022-11-02T00:39:37;101107.94;;;10.70;86.20
54270;BME280;40181;51.560;13.000;2022-11-02T00:42:06;101100.50;;;10.90;85.20
54270;BME280;40181;51.560;13.000;2022-11-02T00:44:35;101113.06;;;11.05;84.39
54270;BME280;40181;51.560;13.000;2022-11-02T00:47:04;101111.09;;;10.95;85.55
54270;BME280;40181;51.560;13.000;2022-11-02T00:49:37;101114.63;;;10.97;85.46
54270;BME280;40181;51.560;13.000;2022-11-02T00:52:06;101115.53;;;10.97;85.16
54270;BME280;40181;51.560;13.000;2022-11-02T00:54:36;101114.91;;;11.09;84.75
54270;BME280;40181;51.560;13.000;2022-11-02T00:57:05;101110.38;;;11.02;84.73
54270;BME280;40181;51.560;13.000;2022-11-02T00:59:34;101112.28;;;11.11;84.81
54270;BME280;40181;51.560;13.000;2022-11-02T01:02:04;101112.56;;;11.23;83.83
54270;BME280;40181;51.560;13.000;2022-11-02T01:04:36;101113.09;;;11.06;84.54
54270;BME280;40181;51.560;13.000;2022-11-02T01:07:05;101119.50;;;11.19;83.83
54270;BME280;40181;51.560;13.000;2022-11-02T01:09:34;101125.63;;;10.77;86.34
54270;BME280;40181;51.560;13.000;2022-11-02T01:12:04;101108.72;;;11.07;84.61
54270;BME280;40181;51.560;13.000;2022-11-02T01:14:34;101115.72;;;11.06;84.36
54270;BME280;40181;51.560;13.000;2022-11-02T01:17:03;101109.38;;;10.95;84.94
54270;BME280;40181;51.560;13.000;2022-11-02T01:19:32;101109.69;;;10.69;85.94
54270;BME280;40181;51.560;13.000;2022-11-02T01:22:04;101111.72;;;10.43;87.08
54270;BME280;40181;51.560;13.000;2022-11-02T01:24:34;101103.34;;;10.59;87.04
54270;BME280;40181;51.560;13.000;2022-11-02T01:27:04;101108.34;;;10.88;85.42
54270;BME280;40181;51.560;13.000;2022-11-02T01:29:33;101099.66;;;10.92;84.68
54270;BME280;40181;51.560;13.000;2022-11-02T01:32:02;101100.44;;;10.88;85.24
54270;BME280;40181;51.560;13.000;2022-11-02T01:34:32;101090.16;;;10.99;84.41
54270;BME280;40181;51.560;13.000;2022-11-02T01:37:04;101093.41;;;10.86;84.94
54270;BME280;40181;51.560;13.000;2022-11-02T01:39:33;101096.50;;;10.68;85.91
54270;BME280;40181;51.560;13.000;2022-11-02T01:42:03;101101.28;;;10.86;85.33
54270;BME280;40181;51.560;13.000;2022-11-02T01:44:42;101090.09;;;10.96;84.19
54270;BME280;40181;51.560;13.000;2022-11-02T01:47:17;101094.28;;;10.86;84.32
54270;BME280;40181;51.560;13.000;2022-11-02T01:49:54;101094.22;;;10.85;84.86
54270;BME280;40181;51.560;13.000;2022-11-02T01:52:29;101093.47;;;10.89;85.01
54270;BME280;40181;51.560;13.000;2022-11-02T01:55:04;101093.63;;;10.55;86.47
54270;BME280;40181;51.560;13.000;2022-11-02T01:57:38;101085.75;;;10.57;86.60
54270;BME280;40181;51.560;13.000;2022-11-02T02:00:11;101100.47;;;10.48;87.18
54270;BME280;40181;51.560;13.000;2022-11-02T02:05:22;101089.44;;;9.90;90.39
54270;BME280;40181;51.560;13.000;2022-11-02T02:07:52;101085.09;;;10.27;89.22
54270;BME280;40181;51.560;13.000;2022-11-02T02:10:23;101088.84;;;10.00;88.93
54270;BME280;40181;51.560;13.000;2022-11-02T02:12:53;101078.38;;;10.40;88.49
54270;BME280;40181;51.560;13.000;2022-11-02T02:15:28;101087.34;;;10.12;89.69
54270;BME280;40181;51.560;13.000;2022-11-02T02:18:09;101087.50;;;10.18;89.81
54270;BME280;40181;51.560;13.000;2022-11-02T02:21:03;101086.13;;;10.34;88.49
54270;BME280;40181;51.560;13.000;2022-11-02T02:24:12;101092.66;;;10.15;89.63
54270;BME280;40181;51.560;13.000;2022-11-02T02:26:59;101077.50;;;10.03;91.17
54270;BME280;40181;51.560;13.000;2022-11-02T02:29:49;101072.59;;;10.17;91.01
54270;BME280;40181;51.560;13.000;2022-11-02T02:32:27;101071.72;;;10.16;90.47
54270;BME280;40181;51.560;13.000;2022-11-02T02:35:10;101086.00;;;9.92;91.94
54270;BME280;40181;51.560;13.000;2022-11-02T02:37:51;101074.66;;;9.92;91.75
54270;BME280;40181;51.560;13.000;2022-11-02T02:40:28;101083.38;;;9.92;91.10
54270;BME280;40181;51.560;13.000;2022-11-02T02:43:04;101074.28;;;10.13;90.32
54270;BME280;40181;51.560;13.000;2022-11-02T02:45:43;101075.78;;;10.03;90.81
54270;BME280;40181;51.560;13.000;2022-11-02T02:48:17;101069.25;;;10.22;89.42
54270;BME280;40181;51.560;13.000;2022-11-02T02:50:49;101064.16;;;10.30;88.69
54270;BME280;40181;51.560;13.000;2022-11-02T02:53:23;101064.00;;;10.22;88.68
54270;BME280;40181;51.560;13.000;2022-11-02T02:55:59;101066.81;;;10.32;88.92
54270;BME280;40181;51.560;13.000;2022-11-02T02:58:35;101071.66;;;10.15;89.72
54270;BME280;40181;51.560;13.000;2022-11-02T03:01:10;101072.38;;;10.07;89.63
54270;BME280;40181;51.560;13.000;2022-11-02T03:03:41;101065.91;;;9.93;90.19
54270;BME280;40181;51.560;13.000;2022-11-02T03:06:16;101059.88;;;9.95;90.02
54270;BME280;40181;51.560;13.000;2022-11-02T03:08:53;101058.25;;;10.02;89.35
54270;BME280;40181;51.560;13.000;2022-11-02T03:11:28;101057.19;;;9.94;89.34
54270;BME280;40181;51.560;13.000;2022-11-02T03:14:05;101065.75;;;10.23;87.64
54270;BME280;40181;51.560;13.000;2022-11-02T03:16:55;101066.78;;;9.93;88.74
54270;BME280;40181;51.560;13.000;2022-11-02T03:19:37;101072.16;;;9.98;88.16
54270;BME280;40181;51.560;13.000;2022-11-02T03:22:21;101059.47;;;9.80;88.64
54270;BME280;40181;51.560;13.000;2022-11-02T03:24:58;101061.44;;;9.89;88.41
54270;BME280;40181;51.560;13.000;2022-11-02T03:27:37;101055.09;;;9.79;88.42
54270;BME280;40181;51.560;13.000;2022-11-02T03:30:11;101051.56;;;9.78;88.44
54270;BME280;40181;51.560;13.000;2022-11-02T03:32:51;101050.16;;;9.93;87.82
54270;BME280;40181;51.560;13.000;2022-11-02T03:35:31;101058.91;;;9.92;87.68
54270;BME280;40181;51.560;13.000;2022-11-02T03:38:12;101060.72;;;9.96;86.98
54270;BME280;40181;51.560;13.000;2022-11-02T03:40:46;101062.97;;;9.80;87.07
54270;BME280;40181;51.560;13.000;2022-11-02T03:43:19;101062.00;;;9.75;87.35
54270;BME280;40181;51.560;13.000;2022-11-02T03:45:51;101062.59;;;10.00;86.70
54270;BME280;40181;51.560;13.000;2022-11-02T03:48:29;101054.28;;;9.83;86.86
54270;BME280;40181;51.560;13.000;2022-11-02T03:51:05;101062.63;;;10.02;85.86
54270;BME280;40181;51.560;13.000;2022-11-02T03:53:42;101057.03;;;9.88;85.85
54270;BME280;40181;51.560;13.000;2022-11-02T03:56:19;101058.63;;;9.81;86.35
54270;BME280;40181;51.560;13.000;2022-11-02T03:58:50;101063.31;;;9.94;85.99
54270;BME280;40181;51.560;13.000;2022-11-02T04:01:20;101053.66;;;9.92;85.38
54270;BME280;40181;51.560;13.000;2022-11-02T04:03:52;101060.19;;;10.09;84.20
54270;BME280;40181;51.560;13.000;2022-11-02T04:06:21;101050.53;;;10.08;84.24
54270;BME280;40181;51.560;13.000;2022-11-02T04:08:51;101055.59;;;10.01;84.31
54270;BME280;40181;51.560;13.000;2022-11-02T04:11:21;101050.13;;;9.91;84.83
54270;BME280;40181;51.560;13.000;2022-11-02T04:14:03;101059.97;;;10.00;85.07
54270;BME280;40181;51.560;13.000;2022-11-02T04:16:45;101055.69;;;10.05;84.70
54270;BME280;40181;51.560;13.000;2022-11-02T04:19:17;101059.75;;;9.91;85.38
54270;BME280;40181;51.560;13.000;2022-11-02T04:21:53;101057.56;;;10.11;84.63
54270;BME280;40181;51.560;13.000;2022-11-02T04:24:35;101060.56;;;9.90;85.01
54270;BME280;40181;51.560;13.000;2022-11-02T04:27:16;101059.34;;;10.12;84.37
54270;BME280;40181;51.560;13.000;2022-11-02T04:29:46;101067.75;;;9.97;84.26
54270;BME280;40181;51.560;13.000;2022-11-02T04:32:15;101068.53;;;9.93;85.05
54270;BME280;40181;51.560;13.000;2022-11-02T04:35:10;101066.28;;;10.08;84.81
54270;BME280;40181;51.560;13.000;2022-11-02T04:37:37;101065.28;;;10.03;85.17
54270;BME280;40181;51.560;13.000;2022-11-02T04:40:19;101058.31;;;10.05;84.46
54270;BME280;40181;51.560;13.000;2022-11-02T04:42:48;101062.16;;;9.81;85.67
54270;BME280;40181;51.560;13.000;2022-11-02T04:45:18;101058.28;;;10.04;84.63
54270;BME280;40181;51.560;13.000;2022-11-02T04:47:48;101044.88;;;9.91;85.80
54270;BME280;40181;51.560;13.000;2022-11-02T04:50:20;101048.72;;;10.06;84.86
54270;BME280;40181;51.560;13.000;2022-11-02T04:52:54;101048.47;;;9.95;85.21
54270;BME280;40181;51.560;13.000;2022-11-02T04:55:24;101048.28;;;9.87;85.67
54270;BME280;40181;51.560;13.000;2022-11-02T04:57:54;101047.97;;;9.73;85.72
54270;BME280;40181;51.560;13.000;2022-11-02T05:00:24;101049.28;;;9.92;85.30
54270;BME280;40181;51.560;13.000;2022-11-02T05:02:53;101051.50;;;10.14;84.52
54270;BME280;40181;51.560;13.000;2022-11-02T05:05:25;101054.63;;;9.97;85.32
54270;BME280;40181;51.560;13.000;2022-11-02T05:07:54;101045.91;;;9.98;84.98
54270;BME280;40181;51.560;13.000;2022-11-02T05:10:24;101057.47;;;10.05;84.79
54270;BME280;40181;51.560;13.000;2022-11-02T05:12:56;101064.25;;;9.96;85.10
54270;BME280;40181;51.560;13.000;2022-11-02T05:15:27;101068.78;;;10.04;84.66
54270;BME280;40181;51.560;13.000;2022-11-02T05:17:57;101062.78;;;10.08;84.46
54270;BME280;40181;51.560;13.000;2022-11-02T05:20:28;101065.59;;;10.17;83.76
54270;BME280;40181;51.560;13.000;2022-11-02T05:22:58;101055.97;;;10.16;83.68
54270;BME280;40181;51.560;13.000;2022-11-02T05:25:27;101056.59;;;10.06;84.24
54270;BME280;40181;51.560;13.000;2022-11-02T05:27:57;101061.38;;;10.22;83.85
54270;BME280;40181;51.560;13.000;2022-11-02T05:30:26;101053.22;;;10.12;83.65
54270;BME280;40181;51.560;13.000;2022-11-02T05:32:56;101054.09;;;10.10;83.82
54270;BME280;40181;51.560;13.000;2022-11-02T05:35:29;101053.69;;;10.32;83.11
54270;BME280;40181;51.560;13.000;2022-11-02T05:37:58;101048.28;;;10.26;83.41
54270;BME280;40181;51.560;13.000;2022-11-02T05:40:28;101058.75;;;10.22;83.19
54270;BME280;40181;51.560;13.000;2022-11-02T05:42:58;101067.47;;;10.23;83.38
54270;BME280;40181;51.560;13.000;2022-11-02T05:45:28;101056.59;;;10.06;83.99
54270;BME280;40181;51.560;13.000;2022-11-02T05:47:59;101058.47;;;10.12;83.78
54270;BME280;40181;51.560;13.000;2022-11-02T05:53:42;101059.88;;;9.95;84.36
54270;BME280;40181;51.560;13.000;2022-11-02T05:56:12;101066.34;;;10.12;84.00
54270;BME280;40181;51.560;13.000;2022-11-02T05:58:42;101055.16;;;10.19;83.75
54270;BME280;40181;51.560;13.000;2022-11-02T06:01:11;101056.81;;;10.15;83.91
54270;BME280;40181;51.560;13.000;2022-11-02T06:03:41;101051.47;;;10.10;84.05
54270;BME280;40181;51.560;13.000;2022-11-02T06:06:10;101053.88;;;10.01;84.45
54270;BME280;40181;51.560;13.000;2022-11-02T06:08:43;101060.88;;;10.02;84.59
54270;BME280;40181;51.560;13.000;2022-11-02T06:11:13;101058.97;;;9.95;84.65
54270;BME280;40181;51.560;13.000;2022-11-02T06:13:42;101059.13;;;10.03;84.40
54270;BME280;40181;51.560;13.000;2022-11-02T06:16:13;101049.78;;;10.14;84.07
54270;BME280;40181;51.560;13.000;2022-11-02T06:18:43;101041.75;;;10.08;84.34
54270;BME280;40181;51.560;13.000;2022-11-02T06:21:12;101048.34;;;10.27;83.50
54270;BME280;40181;51.560;13.000;2022-11-02T06:23:45;101062.72;;;10.06;84.15
54270;BME280;40181;51.560;13.000;2022-11-02T06:26:15;101052.69;;;10.27;83.64
54270;BME280;40181;51.560;13.000;2022-11-02T06:28:44;101054.56;;;9.94;84.60
54270;BME280;40181;51.560;13.000;2022-11-02T06:31:14;101066.25;;;10.07;84.58
54270;BME280;40181;51.560;13.000;2022-11-02T06:33:44;101067.81;;;9.99;84.93
54270;BME280;40181;51.560;13.000;2022-11-02T06:36:13;101064.53;;;10.09;84.28
54270;BME280;40181;51.560;13.000;2022-11-02T06:38:45;101069.13;;;10.18;84.46
54270;BME280;40181;51.560;13.000;2022-11-02T06:41:15;101069.03;;;10.15;84.58
54270;BME280;40181;51.560;13.000;2022-11-02T06:43:45;101071.28;;;9.99;84.64
54270;BME280;40181;51.560;13.000;2022-11-02T06:46:14;101069.84;;;10.10;84.78
54270;BME280;40181;51.560;13.000;2022-11-02T06:48:45;101074.16;;;10.08;84.76
54270;BME280;40181;51.560;13.000;2022-11-02T06:51:15;101074.34;;;10.16;84.40
54270;BME280;40181;51.560;13.000;2022-11-02T06:53:47;101095.88;;;10.03;84.69
54270;BME280;40181;51.560;13.000;2022-11-02T06:56:16;101092.28;;;9.99;85.11
54270;BME280;40181;51.560;13.000;2022-11-02T06:58:46;101090.25;;;10.24;84.27
54270;BME280;40181;51.560;13.000;2022-11-02T07:01:16;101102.09;;;10.05;84.29
54270;BME280;40181;51.560;13.000;2022-11-02T07:03:45;101089.28;;;10.20;84.35
54270;BME280;40181;51.560;13.000;2022-11-02T07:06:15;101100.66;;;10.19;84.37
54270;BME280;40181;51.560;13.000;2022-11-02T07:08:47;101095.81;;;10.38;83.72
54270;BME280;40181;51.560;13.000;2022-11-02T07:11:16;101111.03;;;10.13;84.27
54270;BME280;40181;51.560;13.000;2022-11-02T07:13:46;101110.81;;;10.05;85.72
54270;BME280;40181;51.560;13.000;2022-11-02T07:16:15;101104.81;;;10.09;85.02
54270;BME280;40181;51.560;13.000;2022-11-02T07:18:45;101100.63;;;10.18;85.00
54270;BME280;40181;51.560;13.000;2022-11-02T07:21:14;101104.41;;;10.31;84.48
54270;BME280;40181;51.560;13.000;2022-11-02T07:23:43;101112.81;;;10.14;84.95
54270;BME280;40181;51.560;13.000;2022-11-02T07:26:16;101114.00;;;10.27;84.86
54270;BME280;40181;51.560;13.000;2022-11-02T07:28:45;101117.84;;;10.42;84.32
54270;BME280;40181;51.560;13.000;2022-11-02T07:31:15;101117.47;;;10.28;85.01
54270;BME280;40181;51.560;13.000;2022-11-02T07:33:44;101123.69;;;10.31;84.50
54270;BME280;40181;51.560;13.000;2022-11-02T07:36:13;101126.63;;;10.42;84.48
54270;BME280;40181;51.560;13.000;2022-11-02T07:38:43;101123.41;;;10.56;84.17
54270;BME280;40181;51.560;13.000;2022-11-02T07:41:15;101133.06;;;10.57;84.30
54270;BME280;40181;51.560;13.000;2022-11-02T07:43:44;101140.94;;;10.57;84.77
54270;BME280;40181;51.560;13.000;2022-11-02T07:46:14;101133.34;;;10.71;83.96
54270;BME280;40181;51.560;13.000;2022-11-02T07:48:43;101138.47;;;10.63;84.12
54270;BME280;40181;51.560;13.000;2022-11-02T07:51:13;101135.88;;;10.66;84.13
54270;BME280;40181;51.560;13.000;2022-11-02T07:53:43;101141.13;;;10.64;83.92
54270;BME280;40181;51.560;13.000;2022-11-02T07:56:15;101135.31;;;10.79;83.83
54270;BME280;40181;51.560;13.000;2022-11-02T07:58:45;101147.75;;;10.88;83.53
54270;BME280;40181;51.560;13.000;2022-11-02T08:01:14;101131.97;;;10.87;83.33
54270;BME280;40181;51.560;13.000;2022-11-02T08:03:43;101136.47;;;10.92;83.35
54270;BME280;40181;51.560;13.000;2022-11-02T08:06:12;101140.72;;;10.87;83.16
54270;BME280;40181;51.560;13.000;2022-11-02T08:08:42;101134.81;;;10.96;82.84
54270;BME280;40181;51.560;13.000;2022-11-02T08:11:11;101129.00;;;11.13;82.77
54270;BME280;40181;51.560;13.000;2022-11-02T08:13:44;101136.09;;;11.17;82.51
54270;BME280;40181;51.560;13.000;2022-11-02T08:16:13;101137.94;;;11.21;82.43
54270;BME280;40181;51.560;13.000;2022-11-02T08:18:43;101139.72;;;11.24;81.96
54270;BME280;40181;51.560;13.000;2022-11-02T08:21:13;101135.59;;;11.37;82.07
54270;BME280;40181;51.560;13.000;2022-11-02T08:23:43;101140.25;;;11.50;81.70
54270;BME280;40181;51.560;13.000;2022-11-02T08:26:14;101139.44;;;11.54;81.74
54270;BME280;40181;51.560;13.000;2022-11-02T08:28:44;101136.72;;;11.49;81.53
54270;BME280;40181;51.560;13.000;2022-11-02T08:31:15;101140.50;;;11.66;81.47
54270;BME280;40181;51.560;13.000;2022-11-02T08:33:44;101133.41;;;11.60;81.51
54270;BME280;40181;51.560;13.000;2022-11-02T08:36:14;101136.88;;;11.59;81.54
54270;BME280;40181;51.560;13.000;2022-11-02T08:38:43;101142.28;;;11.65;81.64
54270;BME280;40181;51.560;13.000;2022-11-02T08:41:16;101140.59;;;11.70;81.40
54270;BME280;40181;51.560;13.000;2022-11-02T08:43:45;101144.16;;;11.72;81.28
54270;BME280;40181;51.560;13.000;2022-11-02T08:46:14;101138.88;;;11.71;81.47
54270;BME280;40181;51.560;13.000;2022-11-02T08:48:44;101147.03;;;11.88;81.11
54270;BME280;40181;51.560;13.000;2022-11-02T08:51:13;101140.88;;;11.84;81.16
54270;BME280;40181;51.560;13.000;2022-11-02T08:53:43;101135.75;;;11.94;81.01
54270;BME280;40181;51.560;13.000;2022-11-02T08:56:15;101140.25;;;11.99;81.00
54270;BME280;40181;51.560;13.000;2022-11-02T08:58:45;101150.97;;;12.09;80.45
54270;BME280;40181;51.560;13.000;2022-11-02T09:01:14;101165.00;;;12.08;80.14
54270;BME280;40181;51.560;13.000;2022-11-02T09:03:44;101138.66;;;12.09;79.59
54270;BME280;40181;51.560;13.000;2022-11-02T09:06:13;101129.97;;;12.15;79.73
54270;BME280;40181;51.560;13.000;2022-11-02T09:08:43;101140.53;;;12.16;79.34
54270;BME280;40181;51.560;13.000;2022-11-02T09:11:15;101139.75;;;12.22;78.98
54270;BME280;40181;51.560;13.000;2022-11-02T09:13:44;101132.84;;;12.30;79.35
54270;BME280;40181;51.560;13.000;2022-11-02T09:16:14;101143.41;;;12.30;79.08
54270;BME280;40181;51.560;13.000;2022-11-02T09:18:44;101147.25;;;12.53;78.66
54270;BME280;40181;51.560;13.000;2022-11-02T09:21:14;101146.97;;;12.34;78.94
54270;BME280;40181;51.560;13.000;2022-11-02T09:23:43;101153.34;;;12.50;78.56
54270;BME280;40181;51.560;13.000;2022-11-02T09:26:16;101142.66;;;12.41;78.75
54270;BME280;40181;51.560;13.000;2022-11-02T09:28:46;101148.16;;;12.55;78.44
54270;BME280;40181;51.560;13.000;2022-11-02T09:31:15;101143.91;;;12.65;77.73
54270;BME280;40181;51.560;13.000;2022-11-02T09:33:45;101136.25;;;12.83;77.68
54270;BME280;40181;51.560;13.000;2022-11-02T09:36:14;101139.78;;;12.85;77.47
54270;BME280;40181;51.560;13.000;2022-11-02T09:38:43;101155.53;;;12.81;76.93
54270;BME280;40181;51.560;13.000;2022-11-02T09:41:20;101146.84;;;12.88;76.06
54270;BME280;40181;51.560;13.000;2022-11-02T09:43:59;101158.31;;;12.90;76.29
54270;BME280;40181;51.560;13.000;2022-11-02T09:46:35;101160.94;;;12.90;76.70
54270;BME280;40181;51.560;13.000;2022-11-02T09:49:11;101162.91;;;13.07;76.42
54270;BME280;40181;51.560;13.000;2022-11-02T09:51:44;101175.16;;;13.00;76.12
54270;BME280;40181;51.560;13.000;2022-11-02T09:54:18;101161.28;;;13.17;75.99
54270;BME280;40181;51.560;13.000;2022-11-02T09:56:55;101173.56;;;13.13;75.96
54270;BME280;40181;51.560;13.000;2022-11-02T09:59:28;101172.81;;;13.26;75.43
54270;BME280;40181;51.560;13.000;2022-11-02T10:02:02;101166.66;;;13.24;74.53
54270;BME280;40181;51.560;13.000;2022-11-02T10:04:53;101181.63;;;13.25;74.23
54270;BME280;40181;51.560;13.000;2022-11-02T10:07:36;101171.19;;;13.33;73.94
54270;BME280;40181;51.560;13.000;2022-11-02T10:10:24;101176.63;;;13.46;73.43
54270;BME280;40181;51.560;13.000;2022-11-02T10:13:10;101171.25;;;13.41;72.99
54270;BME280;40181;51.560;13.000;2022-11-02T10:15:46;101172.34;;;13.55;73.29
54270;BME280;40181;51.560;13.000;2022-11-02T10:18:20;101178.31;;;13.44;73.41
54270;BME280;40181;51.560;13.000;2022-11-02T10:20:57;101177.53;;;13.46;73.31
54270;BME280;40181;51.560;13.000;2022-11-02T10:23:31;101200.50;;;13.58;73.28
54270;BME280;40181;51.560;13.000;2022-11-02T10:26:02;101177.56;;;13.52;70.59
54270;BME280;40181;51.560;13.000;2022-11-02T10:28:37;101173.34;;;13.70;71.08
54270;BME280;40181;51.560;13.000;2022-11-02T10:31:19;101177.75;;;13.71;70.11
54270;BME280;40181;51.560;13.000;2022-11-02T10:33:52;101171.69;;;13.81;69.20
54270;BME280;40181;51.560;13.000;2022-11-02T10:36:32;101174.53;;;14.00;68.62
54270;BME280;40181;51.560;13.000;2022-11-02T10:39:18;101176.31;;;14.01;67.13
54270;BME280;40181;51.560;13.000;2022-11-02T10:42:03;101187.91;;;14.19;67.03
54270;BME280;40181;51.560;13.000;2022-11-02T10:47:56;101200.25;;;14.21;65.20
54270;BME280;40181;51.560;13.000;2022-11-02T10:50:41;101194.25;;;14.39;65.20
54270;BME280;40181;51.560;13.000;2022-11-02T10:53:15;101187.22;;;14.45;64.73
54270;BME280;40181;51.560;13.000;2022-11-02T10:55:53;101186.22;;;14.30;63.74
54270;BME280;40181;51.560;13.000;2022-11-02T10:58:27;101199.38;;;14.22;64.09
54270;BME280;40181;51.560;13.000;2022-11-02T11:01:07;101185.22;;;14.14;63.46
54270;BME280;40181;51.560;13.000;2022-11-02T11:03:59;101201.03;;;14.11;63.58
54270;BME280;40181;51.560;13.000;2022-11-02T11:06:31;101189.63;;;14.15;64.43
54270;BME280;40181;51.560;13.000;2022-11-02T11:09:05;101188.69;;;14.10;63.82
54270;BME280;40181;51.560;13.000;2022-11-02T11:11:51;101193.38;;;14.42;63.77
54270;BME280;40181;51.560;13.000;2022-11-02T11:14:22;101189.22;;;14.75;62.04
54270;BME280;40181;51.560;13.000;2022-11-02T11:16:57;101199.09;;;15.06;61.33
54270;BME280;40181;51.560;13.000;2022-11-02T11:19:33;101186.81;;;15.20;60.02
54270;BME280;40181;51.560;13.000;2022-11-02T11:22:24;101186.00;;;15.32;58.83
54270;BME280;40181;51.560;13.000;2022-11-02T11:25:19;101206.06;;;14.93;59.19
54270;BME280;40181;51.560;13.000;2022-11-02T11:27:51;101199.09;;;15.04;59.55
54270;BME280;40181;51.560;13.000;2022-11-02T11:30:26;101201.66;;;14.90;58.68
54270;BME280;40181;51.560;13.000;2022-11-02T11:33:00;101196.38;;;14.93;58.56
54270;BME280;40181;51.560;13.000;2022-11-02T11:35:32;101198.16;;;14.96;59.05
54270;BME280;40181;51.560;13.000;2022-11-02T11:38:04;101200.00;;;15.10;57.67
54270;BME280;40181;51.560;13.000;2022-11-02T11:40:37;101209.53;;;14.81;58.53
54270;BME280;40181;51.560;13.000;2022-11-02T11:43:12;101194.34;;;14.57;58.26
54270;BME280;40181;51.560;13.000;2022-11-02T11:45:53;101213.56;;;14.32;57.79
54270;BME280;40181;51.560;13.000;2022-11-02T11:48:34;101203.91;;;14.37;57.53
54270;BME280;40181;51.560;13.000;2022-11-02T11:51:26;101203.69;;;14.09;57.36
54270;BME280;40181;51.560;13.000;2022-11-02T11:54:23;101189.75;;;14.32;57.28
54270;BME280;40181;51.560;13.000;2022-11-02T11:56:55;101202.75;;;14.04;57.38
54270;BME280;40181;51.560;13.000;2022-11-02T11:59:28;101195.00;;;14.28;57.27
54270;BME280;40181;51.560;13.000;2022-11-02T12:02:00;101184.34;;;14.15;57.66
54270;BME280;40181;51.560;13.000;2022-11-02T12:04:34;101187.88;;;14.17;58.13
54270;BME280;40181;51.560;13.000;2022-11-02T12:07:34;101194.91;;;14.14;57.43
54270;BME280;40181;51.560;13.000;2022-11-02T12:10:25;101193.31;;;14.36;56.40
54270;BME280;40181;51.560;13.000;2022-11-02T12:13:26;101188.22;;;14.61;55.27
54270;BME280;40181;51.560;13.000;2022-11-02T12:16:13;101199.59;;;14.52;55.56
54270;BME280;40181;51.560;13.000;2022-11-02T12:18:59;101186.41;;;14.57;55.66
54270;BME280;40181;51.560;13.000;2022-11-02T12:21:46;101211.16;;;14.63;55.53
54270;BME280;40181;51.560;13.000;2022-11-02T12:27:27;101180.72;;;15.45;54.23
54270;BME280;40181;51.560;13.000;2022-11-02T12:30:12;101181.53;;;15.25;54.26
54270;BME280;40181;51.560;13.000;2022-11-02T12:32:59;101180.72;;;15.53;54.34
54270;BME280;40181;51.560;13.000;2022-11-02T12:36:03;101183.31;;;15.29;54.66
54270;BME280;40181;51.560;13.000;2022-11-02T12:38:48;101163.09;;;15.66;53.39
54270;BME280;40181;51.560;13.000;2022-11-02T12:44:34;101188.75;;;15.87;51.63
54270;BME280;40181;51.560;13.000;2022-11-02T12:47:22;101172.03;;;15.99;51.75
54270;BME280;40181;51.560;13.000;2022-11-02T12:50:04;101173.81;;;16.40;51.45
54270;BME280;40181;51.560;13.000;2022-11-02T12:52:51;101167.59;;;16.20;51.66
54270;BME280;40181;51.560;13.000;2022-11-02T12:55:34;101183.41;;;15.56;52.06
54270;BME280;40181;51.560;13.000;2022-11-02T12:58:21;101168.50;;;16.25;52.24
54270;BME280;40181;51.560;13.000;2022-11-02T13:00:55;101171.91;;;15.52;52.49
54270;BME280;40181;51.560;13.000;2022-11-02T13:03:35;101185.25;;;15.89;52.15
54270;BME280;40181;51.560;13.000;2022-11-02T13:06:14;101172.88;;;15.81;52.53
54270;BME280;40181;51.560;13.000;2022-11-02T13:08:51;101186.88;;;15.42;53.35
54270;BME280;40181;51.560;13.000;2022-11-02T13:11:28;101179.94;;;15.77;52.77
54270;BME280;40181;51.560;13.000;2022-11-02T13:14:01;101177.16;;;15.33;52.60
54270;BME280;40181;51.560;13.000;2022-11-02T13:16:38;101181.50;;;15.16;52.91
54270;BME280;40181;51.560;13.000;2022-11-02T13:19:15;101185.13;;;15.40;52.78
54270;BME280;40181;51.560;13.000;2022-11-02T13:21:49;101186.06;;;15.59;52.88
54270;BME280;40181;51.560;13.000;2022-11-02T13:24:22;101178.03;;;15.39;53.35
54270;BME280;40181;51.560;13.000;2022-11-02T13:26:58;101175.22;;;14.90;54.03
54270;BME280;40181;51.560;13.000;2022-11-02T13:29:35;101185.94;;;15.23;54.01
54270;BME280;40181;51.560;13.000;2022-11-02T13:32:14;101186.88;;;15.31;53.27